createdAt,value
2023-01-17T00:02:12.136Z,72.36
2023-01-17T00:05:01.654Z,70.67
2023-01-17T00:07:47.379Z,71.99
2023-01-17T00:10:18.535Z,70.97
2023-01-17T00:12:57.733Z,71.01
2023-01-17T00:15:26.546Z,69.71
2023-01-17T00:17:54.067Z,70.60
2023-01-17T00:20:44.074Z,72.14
2023-01-17T00:23:39.400Z,71.18
2023-01-17T00:26:19.470Z,71.66
2023-01-17T00:28:47.186Z,71.32
2023-01-17T00:31:15.929Z,70.67
2023-01-17T00:33:42.684Z,71.03
2023-01-17T00:36:10.234Z,71.17
2023-01-17T00:38:38.884Z,71.25
2023-01-17T00:41:13.186Z,71.81
2023-01-17T00:43:59.322Z,72.70
2023-01-17T00:46:45.135Z,72.42
2023-01-17T00:49:30.656Z,72.20
2023-01-17T00:52:15.900Z,71.79
2023-01-17T00:55:01.243Z,72.97
2023-01-17T00:57:46.469Z,74.12
2023-01-17T01:00:32.354Z,73.94
2023-01-17T01:03:17.609Z,73.27
2023-01-17T01:06:02.871Z,72.13
2023-01-17T01:08:49.114Z,71.81
2023-01-17T01:11:39.475Z,71.62
2023-01-17T01:14:28.852Z,72.63
2023-01-17T01:17:14.192Z,72.91
2023-01-17T01:19:59.498Z,73.32
2023-01-17T01:22:44.820Z,72.67
2023-01-17T01:25:30.150Z,71.85
2023-01-17T01:28:29.164Z,73.60
2023-01-17T01:31:14.486Z,72.65
2023-01-17T01:33:41.056Z,73.05
2023-01-17T01:36:09.432Z,72.48
2023-01-17T01:38:36.288Z,73.06
2023-01-17T01:41:03.180Z,71.84
2023-01-17T01:43:49.294Z,71.77
2023-01-17T01:46:41.243Z,72.36
2023-01-17T01:49:24.685Z,72.39
2023-01-17T01:51:57.378Z,73.45
2023-01-17T01:54:30.529Z,72.93
2023-01-17T01:57:03.098Z,72.53
2023-01-17T01:59:32.062Z,73.13
2023-01-17T02:01:58.616Z,72.57
2023-01-17T02:04:28.148Z,71.98
2023-01-17T02:07:10.270Z,72.69
2023-01-17T02:09:37.579Z,72.90
2023-01-17T02:12:06.059Z,72.52
2023-01-17T02:14:32.586Z,72.09
2023-01-17T02:17:17.214Z,71.67
2023-01-17T02:20:17.152Z,72.80
2023-01-17T02:22:54.406Z,72.37
2023-01-17T02:26:16.683Z,72.78
2023-01-17T02:29:12.227Z,72.96
2023-01-17T02:31:55.726Z,72.44
2023-01-17T02:34:40.306Z,70.66
2023-01-17T02:37:40.489Z,72.01
2023-01-17T02:40:18.703Z,71.58
2023-01-17T02:43:02.552Z,71.22
2023-01-17T02:45:29.420Z,71.59
2023-01-17T02:47:55.937Z,71.00
2023-01-17T02:50:29.940Z,70.32
2023-01-17T02:53:47.734Z,70.40
2023-01-17T02:56:48.868Z,71.38
2023-01-17T02:59:32.633Z,71.30
2023-01-17T03:02:30.999Z,70.05
2023-01-17T03:05:13.524Z,70.43
2023-01-17T03:07:44.103Z,70.65
2023-01-17T03:10:15.299Z,70.02
2023-01-17T03:12:43.422Z,70.56
2023-01-17T03:15:13.496Z,70.06
2023-01-17T03:17:49.090Z,70.65
2023-01-17T03:20:16.394Z,70.97
2023-01-17T03:22:42.876Z,71.31
2023-01-17T03:25:09.512Z,70.91
2023-01-17T03:27:36.298Z,70.51
2023-01-17T03:30:03.085Z,71.28
2023-01-17T03:32:29.738Z,70.96
2023-01-17T03:34:56.327Z,71.40
2023-01-17T03:37:22.983Z,71.07
2023-01-17T03:39:49.442Z,71.49
2023-01-17T03:42:15.929Z,70.96
2023-01-17T03:44:42.476Z,70.98
2023-01-17T03:47:12.006Z,70.68
2023-01-17T03:49:39.992Z,71.02
2023-01-17T03:52:07.466Z,71.23
2023-01-17T03:54:34.000Z,71.25
2023-01-17T03:57:00.564Z,71.93
2023-01-17T03:59:27.084Z,72.23
2023-01-17T04:01:53.620Z,73.74
2023-01-17T04:04:20.140Z,72.90
2023-01-17T04:06:47.910Z,72.79
2023-01-17T04:09:14.373Z,72.90
2023-01-17T04:11:40.871Z,72.62
2023-01-17T04:14:07.321Z,71.88
2023-01-17T04:16:33.885Z,71.78
2023-01-17T04:19:00.517Z,71.50
2023-01-17T04:21:26.980Z,71.08
2023-01-17T04:23:53.449Z,71.10
2023-01-17T04:26:19.996Z,71.53
2023-01-17T04:28:46.498Z,71.82
2023-01-17T04:31:17.363Z,71.52
2023-01-17T04:33:44.140Z,71.29
2023-01-17T04:36:10.789Z,70.96
2023-01-17T04:38:37.318Z,70.74
2023-01-17T04:41:03.941Z,70.69
2023-01-17T04:43:30.506Z,71.05
2023-01-17T04:45:58.401Z,70.37
2023-01-17T04:48:25.340Z,69.82
2023-01-17T04:50:51.872Z,70.86
2023-01-17T04:53:18.301Z,70.64
2023-01-17T04:55:46.348Z,70.58
2023-01-17T04:58:12.835Z,70.70
2023-01-17T05:00:39.338Z,70.31
2023-01-17T05:03:05.858Z,70.63
2023-01-17T05:05:32.495Z,70.52
2023-01-17T05:07:59.146Z,70.17
2023-01-17T05:10:26.525Z,69.68
2023-01-17T05:12:55.567Z,70.41
2023-01-17T05:15:22.219Z,70.19
2023-01-17T05:17:48.855Z,70.87
2023-01-17T05:20:15.562Z,70.72
2023-01-17T05:22:42.135Z,71.34
2023-01-17T05:25:09.173Z,70.96
2023-01-17T05:27:36.926Z,71.45
2023-01-17T05:30:03.939Z,71.25
2023-01-17T05:32:30.470Z,71.52
2023-01-17T05:34:56.906Z,71.68
2023-01-17T05:37:23.389Z,71.46
2023-01-17T05:39:49.904Z,71.06
2023-01-17T05:42:16.390Z,70.43
2023-01-17T05:44:42.813Z,71.13
2023-01-17T05:47:09.259Z,70.67
2023-01-17T05:49:35.740Z,70.71
2023-01-17T05:52:02.322Z,70.74
2023-01-17T05:54:28.889Z,70.65
2023-01-17T05:56:55.480Z,70.15
2023-01-17T05:59:35.957Z,70.03
2023-01-17T06:02:03.261Z,70.04
2023-01-17T06:04:29.721Z,70.46
2023-01-17T06:06:56.195Z,70.15
2023-01-17T06:09:22.636Z,70.37
2023-01-17T06:11:49.147Z,70.22
2023-01-17T06:14:15.700Z,70.04
2023-01-17T06:16:42.235Z,69.62
2023-01-17T06:19:09.419Z,69.75
2023-01-17T06:21:35.881Z,69.55
2023-01-17T06:24:04.255Z,69.71
2023-01-17T06:26:30.936Z,69.43
2023-01-17T06:28:57.494Z,69.33
2023-01-17T06:31:24.092Z,69.48
2023-01-17T06:33:50.668Z,69.57
2023-01-17T06:36:17.178Z,69.38
2023-01-17T06:38:43.725Z,69.31
2023-01-17T06:41:10.290Z,69.76
2023-01-17T06:43:36.842Z,70.32
2023-01-17T06:46:03.388Z,70.05
2023-01-17T06:48:29.945Z,69.95
2023-01-17T06:50:57.978Z,69.61
2023-01-17T06:53:24.699Z,69.99
2023-01-17T06:55:52.447Z,70.32
2023-01-17T06:58:18.876Z,70.48
2023-01-17T07:00:45.705Z,70.83
2023-01-17T07:03:26.377Z,70.69
2023-01-17T07:05:54.724Z,70.71
2023-01-17T07:08:21.337Z,71.06
2023-01-17T07:10:48.812Z,70.86
2023-01-17T07:13:15.569Z,70.75
2023-01-17T07:15:42.172Z,70.65
2023-01-17T07:18:08.706Z,70.21
2023-01-17T07:20:35.375Z,70.63
2023-01-17T07:23:01.888Z,69.83
2023-01-17T07:25:28.359Z,70.08
2023-01-17T07:27:57.535Z,69.72
2023-01-17T07:30:24.844Z,69.70
2023-01-17T07:32:53.434Z,69.91
2023-01-17T07:35:20.984Z,70.17
2023-01-17T07:37:51.342Z,69.69
2023-01-17T07:40:19.905Z,70.02
2023-01-17T07:42:47.168Z,70.04
2023-01-17T07:45:16.203Z,69.90
2023-01-17T07:47:43.657Z,69.83
2023-01-17T07:50:11.134Z,70.51
2023-01-17T07:52:37.672Z,70.24
2023-01-17T07:55:04.956Z,70.16
2023-01-17T07:57:32.499Z,70.22
2023-01-17T07:59:58.959Z,69.91
2023-01-17T08:02:25.474Z,70.42
2023-01-17T08:04:51.926Z,71.38
2023-01-17T08:07:18.516Z,71.12
2023-01-17T08:09:49.483Z,70.80
2023-01-17T08:12:16.802Z,70.62
2023-01-17T08:14:43.312Z,70.72
2023-01-17T08:17:14.347Z,69.79
2023-01-17T08:19:40.996Z,70.21
2023-01-17T08:22:08.038Z,70.12
2023-01-17T08:24:35.030Z,70.13
2023-01-17T08:27:01.607Z,70.21
2023-01-17T08:29:28.145Z,70.58
2023-01-17T08:31:54.689Z,70.92
2023-01-17T08:34:21.237Z,70.62
2023-01-17T08:36:47.950Z,71.04
2023-01-17T08:39:14.916Z,71.03
2023-01-17T08:41:41.413Z,70.63
2023-01-17T08:44:07.968Z,70.58
2023-01-17T08:46:34.421Z,70.89
2023-01-17T08:49:02.581Z,70.68
2023-01-17T08:51:31.474Z,70.63
2023-01-17T08:53:58.194Z,69.62
2023-01-17T08:56:25.964Z,69.63
2023-01-17T08:58:53.061Z,68.99
2023-01-17T09:01:19.828Z,68.97
2023-01-17T09:03:49.208Z,68.86
2023-01-17T09:06:16.536Z,68.87
2023-01-17T09:08:46.920Z,68.81
2023-01-17T09:11:17.428Z,69.02
2023-01-17T09:13:44.661Z,68.69
2023-01-17T09:16:11.670Z,68.88
2023-01-17T09:18:38.238Z,69.22
2023-01-17T09:21:18.131Z,68.67
2023-01-17T09:23:45.303Z,68.51
2023-01-17T09:26:25.366Z,68.12
2023-01-17T09:28:52.274Z,68.72
2023-01-17T09:31:22.883Z,69.05
2023-01-17T09:33:51.500Z,68.52
2023-01-17T09:36:18.828Z,68.62
2023-01-17T09:38:46.083Z,69.25
2023-01-17T09:41:49.422Z,68.70
2023-01-17T09:44:41.879Z,68.72
2023-01-17T09:47:28.789Z,69.47
2023-01-17T09:50:07.398Z,69.45
2023-01-17T09:52:34.010Z,69.49
2023-01-17T09:55:00.531Z,69.37
2023-01-17T09:57:54.972Z,69.22
2023-01-17T10:01:09.002Z,68.72
2023-01-17T10:04:06.419Z,68.58
2023-01-17T10:06:57.455Z,68.23
2023-01-17T10:10:05.330Z,67.64
2023-01-17T10:13:11.896Z,68.96
2023-01-17T10:15:56.403Z,68.73
2023-01-17T10:18:30.424Z,68.78
2023-01-17T10:21:05.085Z,68.97
2023-01-17T10:24:20.281Z,68.42
2023-01-17T10:26:56.229Z,68.96
2023-01-17T10:29:30.038Z,69.75
2023-01-17T10:32:01.762Z,69.76
2023-01-17T10:34:43.415Z,69.94
2023-01-17T10:37:40.755Z,69.90
2023-01-17T10:40:22.395Z,70.48
2023-01-17T10:43:12.482Z,70.46
2023-01-17T10:45:55.187Z,70.81
2023-01-17T10:48:34.742Z,70.10
2023-01-17T10:51:44.743Z,69.90
2023-01-17T10:55:06.069Z,69.64
2023-01-17T10:57:41.218Z,69.54
2023-01-17T11:00:24.904Z,69.60
2023-01-17T11:02:52.040Z,69.83
2023-01-17T11:05:25.594Z,70.32
2023-01-17T11:08:08.361Z,69.67
2023-01-17T11:10:37.972Z,69.80
2023-01-17T11:13:28.005Z,69.24
2023-01-17T11:16:27.568Z,68.14
2023-01-17T11:19:21.250Z,68.75
2023-01-17T11:21:57.502Z,68.21
2023-01-17T11:24:53.603Z,66.87
2023-01-17T11:27:30.277Z,66.38
2023-01-17T11:30:29.429Z,67.58
2023-01-17T11:32:59.893Z,67.97
2023-01-17T11:35:34.440Z,66.96
2023-01-17T11:38:14.890Z,66.98
2023-01-17T11:40:44.687Z,66.83
2023-01-17T11:43:11.233Z,67.21
2023-01-17T11:45:40.087Z,66.52
2023-01-17T11:48:09.714Z,66.20
2023-01-17T11:50:44.530Z,65.37
2023-01-17T11:53:22.485Z,64.88
2023-01-17T11:56:17.471Z,63.92
2023-01-17T11:58:45.877Z,63.22
2023-01-17T12:01:25.983Z,63.67
2023-01-17T12:04:41.114Z,62.89
2023-01-17T12:07:22.596Z,63.92
2023-01-17T12:10:16.972Z,63.42
2023-01-17T12:13:10.738Z,62.01
2023-01-17T12:15:55.417Z,59.55
2023-01-17T12:18:52.573Z,59.63
2023-01-17T12:21:51.455Z,60.86
2023-01-17T12:24:51.622Z,59.86
2023-01-17T12:28:22.501Z,60.10
2023-01-17T12:31:29.192Z,60.99
2023-01-17T12:34:07.977Z,62.02
2023-01-17T12:37:02.121Z,60.14
2023-01-17T12:39:41.261Z,59.35
2023-01-17T12:42:14.386Z,59.78
2023-01-17T12:45:05.529Z,59.77
2023-01-17T12:47:42.786Z,61.41
2023-01-17T12:50:34.258Z,62.02
2023-01-17T12:53:21.940Z,62.03
2023-01-17T12:56:11.551Z,61.07
2023-01-17T12:58:50.231Z,60.66
2023-01-17T13:01:42.995Z,61.22
2023-01-17T13:04:27.541Z,61.40
2023-01-17T13:07:12.547Z,61.13
2023-01-17T13:09:57.472Z,60.59
2023-01-17T13:12:32.537Z,60.42
2023-01-17T13:15:02.246Z,61.62
2023-01-17T13:17:56.401Z,61.54
2023-01-17T13:20:48.210Z,60.98
2023-01-17T13:24:05.843Z,60.29
2023-01-17T13:26:50.349Z,62.52
2023-01-17T13:30:29.674Z,60.61
2023-01-17T13:33:20.430Z,62.54
2023-01-17T13:36:05.087Z,62.84
2023-01-17T13:39:10.518Z,62.55
2023-01-17T13:41:50.332Z,63.56
2023-01-17T13:44:23.138Z,63.38
2023-01-17T13:47:17.297Z,63.29
2023-01-17T13:49:49.361Z,63.49
2023-01-17T13:52:18.644Z,63.71
2023-01-17T13:54:49.955Z,62.82
2023-01-17T13:57:43.167Z,63.99
2023-01-17T14:00:16.246Z,63.88
2023-01-17T14:02:43.622Z,63.84
2023-01-17T14:05:15.208Z,63.64
2023-01-17T14:07:57.361Z,63.32
2023-01-17T14:10:38.688Z,63.13
2023-01-17T14:13:24.679Z,63.90
2023-01-17T14:15:51.999Z,63.66
2023-01-17T14:18:39.149Z,63.22
2023-01-17T14:21:23.933Z,63.34
2023-01-17T14:24:06.264Z,64.19
2023-01-17T14:26:41.518Z,64.16
2023-01-17T14:29:57.492Z,63.44
2023-01-17T14:32:31.810Z,63.69
2023-01-17T14:34:59.105Z,63.93
2023-01-17T14:37:31.645Z,64.15
2023-01-17T14:39:59.984Z,65.08
2023-01-17T14:42:31.116Z,64.48
2023-01-17T14:45:09.528Z,64.83
2023-01-17T14:47:39.545Z,65.99
2023-01-17T14:50:21.783Z,65.78
2023-01-17T14:53:16.860Z,65.14
2023-01-17T14:56:03.030Z,65.39
2023-01-17T14:58:34.199Z,65.69
2023-01-17T15:01:06.806Z,65.39
2023-01-17T15:03:44.840Z,64.95
2023-01-17T15:06:22.178Z,66.41
2023-01-17T15:08:51.751Z,67.20
2023-01-17T15:11:33.295Z,67.30
2023-01-17T15:14:05.757Z,66.98
2023-01-17T15:16:36.696Z,66.98
2023-01-17T15:19:12.938Z,66.42
2023-01-17T15:21:43.051Z,66.25
2023-01-17T15:24:25.961Z,65.92
2023-01-17T15:26:52.539Z,66.03
2023-01-17T15:29:30.460Z,65.85
2023-01-17T15:32:01.027Z,65.63
2023-01-17T15:34:30.453Z,65.92
2023-01-17T15:37:02.993Z,65.70
2023-01-17T15:39:40.973Z,65.72
2023-01-17T15:42:24.775Z,66.18
2023-01-17T15:44:56.709Z,66.41
2023-01-17T15:47:32.102Z,66.11
2023-01-17T15:50:00.882Z,66.41
2023-01-17T15:52:28.352Z,66.54
2023-01-17T15:55:12.143Z,66.00
2023-01-17T15:57:39.645Z,66.26
2023-01-17T16:00:20.831Z,66.72
2023-01-17T16:02:56.049Z,67.69
2023-01-17T16:05:30.747Z,68.21
2023-01-17T16:08:03.195Z,68.76
2023-01-17T16:10:35.491Z,69.38
2023-01-17T16:13:05.296Z,69.24
2023-01-17T16:15:32.507Z,69.16
2023-01-17T16:18:06.472Z,68.92
2023-01-17T16:20:53.155Z,69.15
2023-01-17T16:23:19.655Z,69.62
2023-01-17T16:25:47.924Z,69.84
2023-01-17T16:28:14.493Z,70.09
2023-01-17T16:30:41.126Z,69.89
2023-01-17T16:33:12.100Z,70.38
2023-01-17T16:35:40.010Z,70.47
2023-01-17T16:38:11.708Z,70.95
2023-01-17T16:40:43.790Z,70.42
2023-01-17T16:43:12.218Z,70.94
2023-01-17T16:45:48.251Z,70.88
2023-01-17T16:48:18.302Z,70.97
2023-01-17T16:50:50.632Z,71.21
2023-01-17T16:53:24.302Z,71.08
2023-01-17T16:55:55.128Z,71.25
2023-01-17T16:58:21.770Z,71.74
2023-01-17T17:00:48.485Z,71.43
2023-01-17T17:03:20.977Z,71.37
2023-01-17T17:06:00.192Z,71.46
2023-01-17T17:08:29.272Z,71.50
2023-01-17T17:11:06.956Z,71.28
2023-01-17T17:13:37.904Z,71.40
2023-01-17T17:16:26.327Z,71.11
2023-01-17T17:19:06.535Z,71.25
2023-01-17T17:21:37.359Z,70.95
2023-01-17T17:24:04.699Z,70.46
2023-01-17T17:26:37.145Z,70.08
2023-01-17T17:29:05.507Z,69.90
2023-01-17T17:31:32.523Z,70.17
2023-01-17T17:34:01.293Z,70.54
2023-01-17T17:36:28.679Z,70.63
2023-01-17T17:38:56.973Z,70.43
2023-01-17T17:41:27.633Z,70.27
2023-01-17T17:43:55.473Z,70.59
2023-01-17T17:46:24.785Z,70.86
2023-01-17T17:48:51.290Z,71.11
2023-01-17T17:51:25.828Z,71.53
2023-01-17T17:53:54.558Z,71.60
2023-01-17T17:56:23.429Z,72.19
2023-01-17T17:58:52.708Z,71.57
2023-01-17T18:01:19.744Z,71.60
2023-01-17T18:03:46.338Z,71.33
2023-01-17T18:06:13.273Z,70.78
2023-01-17T18:08:40.050Z,70.35
2023-01-17T18:11:14.877Z,69.88
2023-01-17T18:13:42.742Z,69.75
2023-01-17T18:16:13.587Z,69.55
2023-01-17T18:18:45.567Z,70.01
2023-01-17T18:21:25.220Z,70.08
2023-01-17T18:23:58.721Z,70.65
2023-01-17T18:26:30.223Z,70.58
2023-01-17T18:28:59.080Z,70.59
2023-01-17T18:31:27.572Z,70.38
2023-01-17T18:33:57.562Z,70.21
2023-01-17T18:36:26.009Z,71.30
2023-01-17T18:38:52.555Z,71.61
2023-01-17T18:41:23.704Z,71.53
2023-01-17T18:43:51.255Z,72.22
2023-01-17T18:46:21.669Z,72.08
2023-01-17T18:48:48.880Z,71.66
2023-01-17T18:51:19.008Z,71.38
2023-01-17T18:53:46.741Z,71.70
2023-01-17T18:56:18.128Z,71.24
2023-01-17T18:58:47.535Z,70.83
2023-01-17T19:01:25.143Z,70.27
2023-01-17T19:03:55.630Z,70.37
2023-01-17T19:06:27.260Z,70.31
2023-01-17T19:08:54.210Z,70.88
2023-01-17T19:11:23.420Z,70.40
2023-01-17T19:13:52.263Z,70.63
2023-01-17T19:16:27.993Z,70.39
2023-01-17T19:18:57.918Z,70.33
2023-01-17T19:21:27.577Z,70.73
2023-01-17T19:23:55.488Z,71.03
2023-01-17T19:26:27.090Z,71.08
2023-01-17T19:28:56.483Z,71.19
2023-01-17T19:31:28.960Z,71.12
2023-01-17T19:33:58.501Z,71.21
2023-01-17T19:36:33.665Z,70.68
2023-01-17T19:39:05.576Z,70.65
2023-01-17T19:41:36.283Z,70.78
2023-01-17T19:44:07.430Z,70.82
2023-01-17T19:46:35.959Z,71.23
2023-01-17T19:49:03.869Z,71.73
2023-01-17T19:51:30.392Z,71.86
2023-01-17T19:53:59.708Z,71.75
2023-01-17T19:56:28.008Z,71.64
2023-01-17T19:58:54.807Z,71.86
2023-01-17T20:01:28.597Z,71.41
2023-01-17T20:03:58.061Z,71.64
2023-01-17T20:06:28.755Z,71.22
2023-01-17T20:08:55.966Z,71.69
2023-01-17T20:11:25.046Z,71.95
2023-01-17T20:13:57.164Z,72.10
2023-01-17T20:16:26.243Z,72.32
2023-01-17T20:18:53.131Z,72.24
2023-01-17T20:21:25.839Z,71.72
2023-01-17T20:23:54.439Z,71.74
2023-01-17T20:26:36.222Z,70.83
2023-01-17T20:29:15.258Z,71.05
2023-01-17T20:31:43.536Z,70.92
2023-01-17T20:34:13.919Z,71.34
2023-01-17T20:36:42.052Z,71.34
2023-01-17T20:39:09.260Z,71.64
2023-01-17T20:41:39.577Z,71.86
2023-01-17T20:44:11.048Z,71.72
2023-01-17T20:46:41.046Z,71.67
2023-01-17T20:49:14.994Z,71.03
2023-01-17T20:51:43.972Z,71.14
2023-01-17T20:54:14.327Z,71.08
2023-01-17T20:56:41.559Z,70.61
2023-01-17T20:59:12.595Z,70.82
2023-01-17T21:01:39.409Z,71.54
2023-01-17T21:04:09.990Z,71.60
2023-01-17T21:06:40.134Z,71.88
2023-01-17T21:09:08.764Z,72.20
2023-01-17T21:11:36.858Z,71.99
2023-01-17T21:14:08.088Z,71.93
2023-01-17T21:16:35.228Z,71.84
2023-01-17T21:19:02.078Z,71.59
2023-01-17T21:21:29.447Z,71.77
2023-01-17T21:23:59.118Z,71.79
2023-01-17T21:26:28.407Z,71.96
2023-01-17T21:28:55.983Z,72.37
2023-01-17T21:31:28.926Z,72.08
2023-01-17T21:33:59.109Z,71.49
2023-01-17T21:36:30.652Z,72.00
2023-01-17T21:38:59.589Z,72.23
2023-01-17T21:41:29.759Z,72.41
2023-01-17T21:44:00.102Z,72.23
2023-01-17T21:46:27.908Z,72.37
2023-01-17T21:48:56.628Z,71.93
2023-01-17T21:51:24.189Z,72.03
2023-01-17T21:53:50.733Z,72.17
2023-01-17T21:56:35.911Z,71.87
2023-01-17T21:59:02.455Z,71.71
2023-01-17T22:01:33.162Z,71.29
2023-01-17T22:04:03.415Z,71.59
2023-01-17T22:06:34.358Z,70.83
2023-01-17T22:09:00.841Z,70.71
2023-01-17T22:11:30.272Z,70.48
2023-01-17T22:13:58.955Z,71.00
2023-01-17T22:16:26.222Z,70.69
2023-01-17T22:18:52.896Z,70.96
2023-01-17T22:21:26.115Z,71.10
2023-01-17T22:23:56.719Z,70.88
2023-01-17T22:26:30.380Z,70.45
2023-01-17T22:29:00.727Z,70.09
2023-01-17T22:31:28.388Z,70.58
2023-01-17T22:34:02.276Z,70.55
2023-01-17T22:36:31.934Z,70.62
2023-01-17T22:38:58.797Z,70.22
2023-01-17T22:41:32.786Z,69.84
2023-01-17T22:44:05.260Z,70.17
2023-01-17T22:46:35.552Z,71.03
2023-01-17T22:49:02.059Z,70.83
2023-01-17T22:51:29.425Z,70.62
2023-01-17T22:54:00.121Z,71.07
2023-01-17T22:56:31.043Z,71.18
2023-01-17T22:59:00.501Z,71.75
2023-01-17T23:01:30.549Z,71.03
2023-01-17T23:04:01.079Z,70.59
2023-01-17T23:06:37.063Z,70.14
2023-01-17T23:09:10.565Z,69.96
2023-01-17T23:11:46.977Z,70.26
2023-01-17T23:14:52.804Z,70.56
2023-01-17T23:17:40.244Z,70.00
2023-01-17T23:20:10.170Z,69.53
2023-01-17T23:22:36.701Z,69.62
2023-01-17T23:25:12.421Z,69.29
2023-01-17T23:28:04.346Z,69.48
2023-01-17T23:30:41.902Z,69.86
2023-01-17T23:33:14.471Z,70.11
2023-01-17T23:35:44.435Z,70.70
2023-01-17T23:38:34.507Z,70.72
2023-01-17T23:41:24.460Z,70.91
2023-01-17T23:43:57.028Z,70.28
2023-01-17T23:46:25.854Z,70.02
2023-01-17T23:48:52.727Z,69.53
2023-01-17T23:51:19.227Z,69.44
2023-01-17T23:53:45.723Z,68.94
2023-01-17T23:56:24.525Z,68.82
2023-01-17T23:58:51.117Z,68.95
